createdAt,value
2022-11-25T00:02:00.690Z,43.38
2022-11-25T00:04:37.105Z,43.15
2022-11-25T00:07:07.223Z,35.05
2022-11-25T00:09:37.159Z,41.83
2022-11-25T00:12:07.407Z,31.42
2022-11-25T00:14:39.957Z,31.75
2022-11-25T00:17:09.835Z,30.50
2022-11-25T00:19:39.666Z,32.70
2022-11-25T00:22:09.559Z,32.78
2022-11-25T00:24:39.395Z,33.72
2022-11-25T00:27:09.293Z,31.30
2022-11-25T00:29:43.961Z,30.63
2022-11-25T00:32:13.918Z,26.42
2022-11-25T00:34:43.751Z,30.70
2022-11-25T00:37:13.678Z,28.63
2022-11-25T00:39:43.637Z,36.88
2022-11-25T00:42:26.092Z,36.92
2022-11-25T00:44:58.978Z,36.35
2022-11-25T00:47:29.616Z,33.70
2022-11-25T00:49:59.612Z,33.92
2022-11-25T00:52:30.608Z,38.28
2022-11-25T00:55:00.537Z,31.05
2022-11-25T00:57:30.520Z,33.97
2022-11-25T01:00:03.168Z,33.80
2022-11-25T01:02:33.171Z,29.65
2022-11-25T01:05:03.123Z,35.70
2022-11-25T01:07:33.066Z,34.00
2022-11-25T01:10:03.214Z,36.15
2022-11-25T01:12:33.295Z,34.17
2022-11-25T01:15:06.873Z,34.50
2022-11-25T01:17:37.705Z,37.97
2022-11-25T01:20:10.005Z,41.22
2022-11-25T01:22:42.623Z,33.83
2022-11-25T01:25:13.033Z,30.42
2022-11-25T01:27:43.247Z,36.90
2022-11-25T01:30:16.161Z,34.35
2022-11-25T01:32:46.109Z,37.42
2022-11-25T01:35:16.188Z,21.52
2022-11-25T01:37:46.103Z,27.08
2022-11-25T01:40:16.300Z,33.97
2022-11-25T01:42:47.411Z,27.52
2022-11-25T01:45:36.518Z,31.30
2022-11-25T01:48:12.020Z,30.40
2022-11-25T01:50:42.715Z,25.75
2022-11-25T01:53:14.047Z,25.73
2022-11-25T01:55:47.081Z,30.48
2022-11-25T01:58:19.605Z,27.33
2022-11-25T02:00:54.035Z,29.95
2022-11-25T02:03:26.563Z,26.73
2022-11-25T02:06:02.682Z,28.08
2022-11-25T02:08:34.182Z,29.13
2022-11-25T02:11:05.359Z,31.17
2022-11-25T02:13:36.237Z,29.08
2022-11-25T02:16:08.992Z,29.55
2022-11-25T02:18:39.012Z,35.17
2022-11-25T02:21:09.481Z,31.60
2022-11-25T02:23:44.240Z,32.30
2022-11-25T02:26:16.800Z,23.15
2022-11-25T02:28:47.643Z,23.67
2022-11-25T02:31:22.907Z,28.67
2022-11-25T02:33:53.012Z,43.13
2022-11-25T02:36:25.052Z,49.05
2022-11-25T02:38:57.063Z,34.50
2022-11-25T02:41:33.850Z,34.25
2022-11-25T02:44:08.081Z,30.03
2022-11-25T02:46:39.036Z,29.27
2022-11-25T02:49:10.505Z,31.58
2022-11-25T02:51:44.074Z,31.10
2022-11-25T02:54:14.338Z,28.08
2022-11-25T02:56:47.772Z,37.20
2022-11-25T02:59:17.658Z,38.00
2022-11-25T03:01:48.942Z,31.25
2022-11-25T03:04:18.830Z,32.92
2022-11-25T03:06:48.745Z,31.27
2022-11-25T03:09:18.670Z,41.22
2022-11-25T03:12:03.625Z,34.92
2022-11-25T03:14:33.714Z,32.63
2022-11-25T03:17:04.669Z,32.58
2022-11-25T03:19:34.656Z,28.77
2022-11-25T03:22:04.759Z,33.97
2022-11-25T03:24:36.607Z,36.33
2022-11-25T03:27:09.565Z,37.85
2022-11-25T03:29:40.290Z,37.55
2022-11-25T03:32:11.047Z,45.85
2022-11-25T03:34:42.010Z,32.42
2022-11-25T03:37:12.762Z,38.08
2022-11-25T03:39:42.914Z,41.05
2022-11-25T03:42:15.551Z,40.35
2022-11-25T03:44:46.107Z,44.15
2022-11-25T03:47:16.568Z,39.75
2022-11-25T03:49:46.835Z,32.45
2022-11-25T03:52:17.310Z,35.50
2022-11-25T03:54:48.034Z,35.55
2022-11-25T03:57:26.789Z,36.85
2022-11-25T03:59:57.492Z,34.20
2022-11-25T04:02:27.969Z,33.17
2022-11-25T04:04:58.263Z,29.88
2022-11-25T04:07:28.388Z,44.78
2022-11-25T04:10:00.499Z,41.70
2022-11-25T04:12:52.608Z,32.90
2022-11-25T04:15:27.130Z,26.27
2022-11-25T04:18:00.337Z,39.15
2022-11-25T04:20:30.370Z,51.95
2022-11-25T04:23:06.916Z,37.63
2022-11-25T04:25:39.898Z,32.30
2022-11-25T04:28:17.708Z,26.70
2022-11-25T04:30:47.759Z,57.45
2022-11-25T04:33:17.795Z,56.85
2022-11-25T04:35:50.356Z,51.65
2022-11-25T04:38:20.319Z,38.05
2022-11-25T04:40:51.579Z,38.80
2022-11-25T04:43:27.323Z,38.85
2022-11-25T04:46:15.683Z,41.80
2022-11-25T04:48:49.410Z,40.38
2022-11-25T04:51:19.824Z,48.40
2022-11-25T04:53:49.663Z,42.08
2022-11-25T04:56:21.293Z,51.35
2022-11-25T04:59:09.139Z,55.15
2022-11-25T05:01:43.000Z,47.45
2022-11-25T05:04:23.993Z,32.15
2022-11-25T05:06:54.200Z,37.83
2022-11-25T05:09:26.215Z,43.03
2022-11-25T05:12:24.325Z,35.00
2022-11-25T05:14:57.140Z,38.80
2022-11-25T05:17:29.149Z,34.10
2022-11-25T05:19:59.448Z,39.15
2022-11-25T05:22:31.096Z,45.75
2022-11-25T05:25:01.555Z,33.95
2022-11-25T05:27:32.874Z,36.80
2022-11-25T05:30:13.608Z,35.03
2022-11-25T05:32:44.945Z,30.52
2022-11-25T05:35:14.858Z,33.80
2022-11-25T05:37:46.957Z,36.72
2022-11-25T05:40:17.394Z,35.28
2022-11-25T05:43:03.425Z,49.95
2022-11-25T05:45:37.810Z,48.47
2022-11-25T05:48:08.782Z,31.50
2022-11-25T05:50:40.022Z,36.88
2022-11-25T05:53:20.219Z,32.95
2022-11-25T05:55:57.129Z,38.50
2022-11-25T05:58:45.931Z,36.15
2022-11-25T06:01:20.440Z,39.22
2022-11-25T06:03:51.164Z,34.22
2022-11-25T06:06:22.054Z,26.35
2022-11-25T06:08:52.022Z,24.20
2022-11-25T06:11:21.961Z,15.07
2022-11-25T06:13:51.854Z,16.17
2022-11-25T06:16:25.923Z,18.52
2022-11-25T06:18:55.736Z,26.23
2022-11-25T06:21:25.708Z,30.38
2022-11-25T06:23:55.635Z,33.40
2022-11-25T06:26:26.371Z,25.52
2022-11-25T06:28:57.542Z,28.73
2022-11-25T06:31:30.007Z,17.48
2022-11-25T06:34:42.135Z,22.90
2022-11-25T06:37:21.368Z,13.75
2022-11-25T06:39:51.250Z,13.43
2022-11-25T06:42:21.057Z,15.10
2022-11-25T06:44:50.940Z,18.02
2022-11-25T06:47:23.402Z,16.23
2022-11-25T06:49:53.693Z,36.25
2022-11-25T06:52:23.920Z,57.78
2022-11-25T06:54:54.100Z,48.08
2022-11-25T06:57:23.962Z,58.25
2022-11-25T06:59:54.269Z,41.00
2022-11-25T07:02:26.805Z,27.38
2022-11-25T07:04:56.788Z,22.77
2022-11-25T07:07:26.704Z,20.98
2022-11-25T07:09:56.619Z,36.80
2022-11-25T07:12:26.543Z,34.10
2022-11-25T07:14:56.444Z,34.65
2022-11-25T07:17:28.859Z,50.10
2022-11-25T07:19:58.646Z,77.55
2022-11-25T07:22:28.529Z,68.85
2022-11-25T07:24:58.392Z,52.78
2022-11-25T07:27:28.273Z,56.63
2022-11-25T07:30:41.142Z,56.03
2022-11-25T07:32:50.673Z,61.55
2022-11-25T07:35:20.702Z,67.70
2022-11-25T07:37:50.530Z,42.50
2022-11-25T07:40:20.674Z,37.92
2022-11-25T07:42:50.570Z,35.85
2022-11-25T07:45:20.952Z,36.17
2022-11-25T07:47:58.094Z,77.13
2022-11-25T07:50:28.054Z,35.70
2022-11-25T07:52:57.891Z,33.28
2022-11-25T07:55:27.720Z,28.95
2022-11-25T07:57:57.679Z,27.05
2022-11-25T08:00:27.771Z,28.38
2022-11-25T08:03:00.385Z,29.60
2022-11-25T08:05:30.446Z,40.10
2022-11-25T08:08:00.431Z,37.58
2022-11-25T08:10:30.361Z,30.38
2022-11-25T08:13:00.344Z,31.25
2022-11-25T08:15:30.239Z,33.15
2022-11-25T08:18:02.750Z,31.58
2022-11-25T08:20:32.813Z,31.00
2022-11-25T08:23:02.815Z,25.02
2022-11-25T08:25:32.860Z,32.13
2022-11-25T08:28:02.861Z,71.95
2022-11-25T08:30:32.696Z,74.03
2022-11-25T08:33:07.501Z,116.57
2022-11-25T08:35:38.885Z,136.40
2022-11-25T08:38:09.133Z,77.18
2022-11-25T08:40:40.038Z,42.38
2022-11-25T08:43:10.037Z,36.53
2022-11-25T08:45:39.925Z,19.95
2022-11-25T08:48:12.552Z,17.60
2022-11-25T08:50:42.579Z,18.75
2022-11-25T08:53:12.509Z,16.35
2022-11-25T08:55:42.472Z,12.15
2022-11-25T08:58:13.433Z,11.07
2022-11-25T09:00:43.892Z,7.90
2022-11-25T09:03:16.773Z,6.13
2022-11-25T09:05:47.193Z,6.20
2022-11-25T09:08:17.167Z,7.78
2022-11-25T09:10:47.254Z,4.63
2022-11-25T09:13:17.203Z,9.02
2022-11-25T09:15:47.166Z,4.55
2022-11-25T09:18:20.464Z,11.98
2022-11-25T09:20:50.596Z,12.82
2022-11-25T09:23:20.513Z,10.43
2022-11-25T09:25:54.083Z,10.40
2022-11-25T09:28:24.380Z,9.27
2022-11-25T09:30:57.417Z,8.07
2022-11-25T09:33:30.005Z,8.77
2022-11-25T09:36:03.105Z,9.45
2022-11-25T09:38:33.106Z,8.50
2022-11-25T09:41:05.695Z,8.98
2022-11-25T09:43:56.115Z,9.23
2022-11-25T09:46:46.265Z,8.88
2022-11-25T09:49:41.757Z,7.75
2022-11-25T09:52:16.363Z,22.80
2022-11-25T09:54:49.688Z,23.45
2022-11-25T09:57:25.154Z,12.35
2022-11-25T10:00:03.918Z,17.45
2022-11-25T10:02:45.166Z,13.45
2022-11-25T10:05:24.050Z,13.70
2022-11-25T10:07:56.508Z,18.67
2022-11-25T10:10:31.004Z,20.15
2022-11-25T10:13:02.568Z,17.08
2022-11-25T10:15:37.130Z,15.18
2022-11-25T10:18:13.715Z,13.50
2022-11-25T10:20:46.915Z,15.95
2022-11-25T10:23:27.661Z,15.68
2022-11-25T10:26:01.456Z,16.67
2022-11-25T10:28:36.658Z,14.27
2022-11-25T10:31:10.172Z,17.35
2022-11-25T10:33:42.933Z,16.40
2022-11-25T10:36:18.891Z,13.80
2022-11-25T10:38:55.452Z,14.32
2022-11-25T10:41:29.311Z,33.30
2022-11-25T10:43:59.284Z,22.77
2022-11-25T10:47:11.182Z,14.77
2022-11-25T10:49:31.648Z,13.40
2022-11-25T10:52:04.293Z,11.18
2022-11-25T10:54:34.499Z,8.95
2022-11-25T10:57:05.867Z,12.43
2022-11-25T10:59:37.448Z,8.07
2022-11-25T11:02:19.754Z,7.50
2022-11-25T11:04:59.379Z,7.13
2022-11-25T11:07:36.908Z,6.10
2022-11-25T11:10:22.877Z,5.57
2022-11-25T11:13:01.835Z,8.07
2022-11-25T11:15:33.595Z,10.18
2022-11-25T11:18:18.037Z,10.05
2022-11-25T11:20:50.096Z,9.07
2022-11-25T11:23:22.735Z,11.55
2022-11-25T11:26:01.635Z,12.30
2022-11-25T11:28:37.050Z,14.70
2022-11-25T11:31:09.590Z,16.50
2022-11-25T11:33:46.260Z,13.90
2022-11-25T11:36:37.580Z,15.77
2022-11-25T11:39:25.539Z,13.30
2022-11-25T11:41:59.457Z,12.07
2022-11-25T11:44:35.388Z,12.38
2022-11-25T11:47:16.781Z,16.20
2022-11-25T11:50:01.177Z,13.98
2022-11-25T11:52:36.037Z,13.70
2022-11-25T11:55:28.082Z,11.73
2022-11-25T11:58:04.612Z,9.05
2022-11-25T12:00:42.000Z,12.75
2022-11-25T12:03:16.353Z,11.85
2022-11-25T12:05:46.696Z,15.15
2022-11-25T12:08:19.033Z,15.82
2022-11-25T12:10:54.900Z,15.93
2022-11-25T12:13:32.563Z,30.55
2022-11-25T12:16:08.240Z,11.43
2022-11-25T12:18:52.370Z,10.55
2022-11-25T12:21:41.689Z,8.43
2022-11-25T12:24:19.622Z,21.90
2022-11-25T12:26:56.878Z,11.85
2022-11-25T12:29:34.111Z,20.30
2022-11-25T12:32:12.956Z,10.55
2022-11-25T12:34:46.303Z,10.27
2022-11-25T12:37:21.248Z,15.63
2022-11-25T12:39:54.905Z,12.43
2022-11-25T12:42:28.640Z,15.43
2022-11-25T12:45:03.707Z,10.23
2022-11-25T12:47:33.790Z,8.20
2022-11-25T12:50:03.861Z,9.55
2022-11-25T12:52:45.472Z,7.45
2022-11-25T12:55:18.978Z,26.88
2022-11-25T12:58:28.428Z,21.27
2022-11-25T13:01:30.992Z,17.45
2022-11-25T13:04:26.547Z,17.63
2022-11-25T13:07:26.454Z,19.90
2022-11-25T13:10:18.819Z,8.02
2022-11-25T13:13:00.940Z,6.28
2022-11-25T13:15:35.033Z,12.43
2022-11-25T13:18:07.097Z,6.60
2022-11-25T13:20:40.576Z,6.53
2022-11-25T13:23:13.213Z,8.98
2022-11-25T13:25:44.857Z,5.55
2022-11-25T13:28:33.592Z,17.73
2022-11-25T13:31:27.796Z,32.17
2022-11-25T13:34:06.092Z,23.13
2022-11-25T13:36:51.656Z,11.60
2022-11-25T13:39:22.388Z,21.10
2022-11-25T13:42:00.397Z,16.90
2022-11-25T13:44:32.796Z,36.33
2022-11-25T13:47:26.584Z,17.90
2022-11-25T13:49:58.143Z,23.25
2022-11-25T13:52:40.547Z,25.98
2022-11-25T13:55:24.743Z,24.25
2022-11-25T13:58:06.842Z,73.18
2022-11-25T14:01:29.230Z,52.42
2022-11-25T14:04:03.562Z,15.13
2022-11-25T14:07:00.179Z,34.95
2022-11-25T14:09:41.378Z,35.17
2022-11-25T14:12:35.256Z,17.77
2022-11-25T14:15:32.242Z,29.70
2022-11-25T14:19:03.212Z,17.73
2022-11-25T14:21:33.739Z,18.95
2022-11-25T14:24:15.432Z,16.02
2022-11-25T14:26:50.386Z,14.18
2022-11-25T14:29:23.650Z,11.52
2022-11-25T14:31:57.344Z,14.38
2022-11-25T14:34:30.967Z,18.42
2022-11-25T14:37:11.230Z,24.70
2022-11-25T14:39:45.527Z,22.35
2022-11-25T14:42:17.980Z,29.33
2022-11-25T14:44:50.431Z,33.70
2022-11-25T14:47:24.873Z,19.60
2022-11-25T14:50:18.809Z,31.20
2022-11-25T14:52:48.624Z,30.45
2022-11-25T14:55:27.953Z,37.15
2022-11-25T15:00:27.607Z,43.63
2022-11-25T15:03:00.056Z,40.97
2022-11-25T15:05:34.886Z,76.60
2022-11-25T15:08:14.089Z,37.78
2022-11-25T15:10:46.637Z,22.25
2022-11-25T15:13:23.889Z,16.67
2022-11-25T15:15:55.720Z,16.52
2022-11-25T15:18:27.174Z,15.90
2022-11-25T15:21:00.031Z,18.60
2022-11-25T15:23:34.962Z,18.58
2022-11-25T15:26:05.730Z,22.40
2022-11-25T15:28:39.846Z,58.13
2022-11-25T15:31:12.771Z,26.70
2022-11-25T15:33:43.172Z,21.52
2022-11-25T15:36:13.623Z,23.63
2022-11-25T15:38:47.762Z,23.48
2022-11-25T15:41:22.795Z,28.90
2022-11-25T15:43:54.249Z,24.42
2022-11-25T15:46:25.083Z,19.70
2022-11-25T15:48:56.723Z,41.03
2022-11-25T15:51:34.432Z,39.20
2022-11-25T15:54:09.242Z,32.53
2022-11-25T15:56:41.015Z,34.80
2022-11-25T15:59:40.731Z,44.78
2022-11-25T16:02:32.926Z,39.85
2022-11-25T16:05:21.811Z,33.92
2022-11-25T16:08:03.415Z,19.80
2022-11-25T16:10:37.826Z,20.23
2022-11-25T16:13:38.029Z,24.75
2022-11-25T16:16:29.513Z,21.55
2022-11-25T16:19:15.988Z,30.10
2022-11-25T16:21:49.579Z,28.23
2022-11-25T16:24:29.139Z,27.60
2022-11-25T16:27:03.601Z,29.00
2022-11-25T16:29:35.904Z,36.90
2022-11-25T16:32:16.559Z,34.20
2022-11-25T16:34:47.493Z,31.13
2022-11-25T16:37:17.382Z,30.42
2022-11-25T16:39:47.216Z,28.67
2022-11-25T16:42:23.940Z,26.48
2022-11-25T16:44:54.901Z,37.00
2022-11-25T16:47:26.395Z,31.75
2022-11-25T16:49:56.287Z,36.00
2022-11-25T16:52:26.137Z,47.95
2022-11-25T16:54:56.019Z,53.60
2022-11-25T16:57:28.557Z,59.63
2022-11-25T17:00:01.031Z,75.43
2022-11-25T17:02:31.120Z,59.15
2022-11-25T17:05:02.190Z,69.28
2022-11-25T17:07:33.531Z,57.58
2022-11-25T17:10:03.912Z,41.08
2022-11-25T17:12:37.309Z,32.30
2022-11-25T17:15:09.825Z,38.80
2022-11-25T17:17:39.855Z,25.77
2022-11-25T17:20:13.719Z,29.33
2022-11-25T17:22:43.729Z,26.27
2022-11-25T17:25:14.744Z,23.33
2022-11-25T17:27:48.239Z,30.48
2022-11-25T17:30:21.772Z,28.02
2022-11-25T17:32:57.124Z,17.13
2022-11-25T17:35:27.662Z,28.45
2022-11-25T17:37:57.622Z,24.27
2022-11-25T17:40:27.600Z,19.73
2022-11-25T17:43:00.155Z,22.52
2022-11-25T17:45:30.089Z,25.13
2022-11-25T17:48:00.020Z,22.73
2022-11-25T17:50:29.946Z,27.83
2022-11-25T17:52:59.848Z,17.08
2022-11-25T17:55:29.678Z,22.90
2022-11-25T17:58:02.319Z,18.70
2022-11-25T18:00:34.292Z,20.40
2022-11-25T18:03:04.226Z,15.77
2022-11-25T18:05:35.115Z,26.65
2022-11-25T18:08:05.053Z,31.42
2022-11-25T18:10:35.027Z,44.58
2022-11-25T18:13:08.308Z,111.82
2022-11-25T18:15:38.655Z,78.28
2022-11-25T18:18:10.478Z,41.58
2022-11-25T18:20:40.536Z,38.55
2022-11-25T18:23:12.488Z,51.63
2022-11-25T18:25:43.365Z,31.42
2022-11-25T18:28:19.540Z,36.17
2022-11-25T18:30:49.651Z,29.05
2022-11-25T18:33:21.215Z,30.52
2022-11-25T18:35:51.154Z,41.25
2022-11-25T18:38:20.995Z,49.28
2022-11-25T18:40:53.784Z,28.15
2022-11-25T18:43:27.684Z,48.83
2022-11-25T18:45:58.129Z,38.72
2022-11-25T18:48:29.088Z,52.90
2022-11-25T18:50:59.170Z,35.67
2022-11-25T18:53:29.483Z,31.15
2022-11-25T18:55:59.293Z,61.38
2022-11-25T18:58:32.796Z,54.83
2022-11-25T19:01:06.527Z,36.10
2022-11-25T19:03:36.492Z,31.75
2022-11-25T19:06:06.521Z,16.95
2022-11-25T19:08:36.440Z,23.73
2022-11-25T19:11:06.268Z,37.28
2022-11-25T19:13:39.553Z,42.85
2022-11-25T19:16:12.284Z,28.90
2022-11-25T19:18:42.430Z,23.92
2022-11-25T19:21:13.867Z,46.67
2022-11-25T19:23:43.849Z,54.10
2022-11-25T19:26:16.788Z,23.25
2022-11-25T19:28:52.455Z,15.48
2022-11-25T19:31:22.769Z,12.25
2022-11-25T19:33:54.292Z,10.95
2022-11-25T19:36:27.131Z,11.52
2022-11-25T19:38:57.475Z,11.13
2022-11-25T19:41:27.496Z,12.15
2022-11-25T19:44:00.055Z,15.95
2022-11-25T19:46:46.350Z,14.25
2022-11-25T19:49:24.055Z,13.32
2022-11-25T19:51:53.930Z,11.73
2022-11-25T19:54:23.803Z,13.63
2022-11-25T19:56:53.654Z,16.45
2022-11-25T19:59:26.152Z,20.90
2022-11-25T20:01:56.079Z,22.98
2022-11-25T20:04:26.019Z,19.55
2022-11-25T20:06:55.876Z,21.77
2022-11-25T20:09:25.686Z,18.80
2022-11-25T20:11:58.817Z,19.40
2022-11-25T20:14:34.750Z,16.55
2022-11-25T20:17:07.837Z,19.48
2022-11-25T20:19:37.697Z,20.70
2022-11-25T20:22:07.700Z,15.20
2022-11-25T20:24:37.994Z,14.50
2022-11-25T20:27:08.157Z,17.15
2022-11-25T20:29:40.661Z,14.35
2022-11-25T20:32:22.176Z,13.65
2022-11-25T20:34:52.140Z,17.48
2022-11-25T20:37:24.118Z,19.77
2022-11-25T20:39:55.029Z,12.63
2022-11-25T20:42:25.472Z,17.17
2022-11-25T20:44:58.119Z,16.63
2022-11-25T20:47:28.425Z,13.07
2022-11-25T20:49:58.442Z,16.42
2022-11-25T20:52:32.942Z,17.10
2022-11-25T20:55:03.672Z,16.67
2022-11-25T20:57:33.534Z,15.05
2022-11-25T21:00:12.070Z,17.60
2022-11-25T21:02:42.024Z,18.42
2022-11-25T21:05:12.053Z,25.80
2022-11-25T21:07:42.384Z,27.95
2022-11-25T21:10:28.504Z,23.02
2022-11-25T21:12:59.358Z,23.15
2022-11-25T21:15:31.900Z,19.05
2022-11-25T21:18:01.766Z,27.23
2022-11-25T21:20:31.965Z,43.30
2022-11-25T21:23:05.598Z,16.20
2022-11-25T21:25:37.032Z,14.13
2022-11-25T21:28:07.559Z,12.55
2022-11-25T21:30:40.087Z,12.93
2022-11-25T21:33:13.048Z,14.73
2022-11-25T21:35:43.884Z,14.23
2022-11-25T21:38:18.689Z,11.02
2022-11-25T21:40:50.044Z,15.25
2022-11-25T21:43:22.030Z,19.98
2022-11-25T21:45:56.786Z,10.35
2022-11-25T21:48:28.473Z,12.90
2022-11-25T21:50:58.838Z,12.30
2022-11-25T21:53:33.175Z,13.48
2022-11-25T21:56:06.055Z,14.70
2022-11-25T21:58:36.342Z,14.65
2022-11-25T22:01:09.038Z,13.45
2022-11-25T22:03:39.017Z,12.70
2022-11-25T22:06:16.134Z,18.00
2022-11-25T22:08:46.068Z,16.95
2022-11-25T22:11:18.024Z,11.57
2022-11-25T22:13:49.047Z,14.40
2022-11-25T22:16:27.030Z,10.35
2022-11-25T22:18:57.127Z,10.75
2022-11-25T22:21:27.117Z,13.18
2022-11-25T22:23:57.004Z,14.00
2022-11-25T22:26:32.748Z,9.73
2022-11-25T22:29:03.500Z,12.13
2022-11-25T22:31:36.098Z,11.00
2022-11-25T22:34:06.095Z,11.40
2022-11-25T22:36:39.961Z,13.48
2022-11-25T22:39:16.856Z,13.35
2022-11-25T22:41:49.172Z,13.50
2022-11-25T22:44:23.330Z,14.40
2022-11-25T22:46:55.903Z,13.50
2022-11-25T22:49:46.242Z,17.38
2022-11-25T22:52:20.804Z,16.60
2022-11-25T22:54:50.731Z,13.20
2022-11-25T22:57:20.799Z,10.93
2022-11-25T22:59:50.669Z,12.82
2022-11-25T23:02:26.172Z,11.82
2022-11-25T23:04:57.974Z,11.98
2022-11-25T23:07:28.371Z,10.00
2022-11-25T23:09:58.332Z,13.50
2022-11-25T23:12:28.140Z,11.25
2022-11-25T23:14:57.988Z,14.90
2022-11-25T23:17:30.406Z,16.20
2022-11-25T23:20:00.491Z,19.83
2022-11-25T23:22:30.420Z,11.52
2022-11-25T23:25:00.214Z,18.05
2022-11-25T23:27:30.157Z,14.85
2022-11-25T23:29:59.978Z,13.32
2022-11-25T23:32:32.470Z,17.83
2022-11-25T23:35:02.430Z,21.75
2022-11-25T23:37:32.367Z,16.33
2022-11-25T23:40:02.274Z,16.05
2022-11-25T23:42:32.156Z,18.13
2022-11-25T23:45:01.997Z,19.30
2022-11-25T23:47:34.422Z,17.13
2022-11-25T23:50:04.351Z,20.20
2022-11-25T23:52:34.269Z,14.82
2022-11-25T23:55:04.168Z,18.77
2022-11-25T23:57:35.654Z,24.80
